Time;durP1;ratioP1;P1;durP2;ratioP2;P2;SDS_P1;SDS_P2;PMS_P1;PMS_P2;Temp;Humidity;BMP_temperature;BMP_pressure;BME280_temperature;BME280_humidity;BME280_pressure;Samples;Min_cycle;Max_cycle;Signal;HPM_P1;HPM_P2
2023/06/03 00:01:13;;;;;;;7.95;4.00;;;;;;;17.33;63.26;98890.91;4980492;28;20026;-92
2023/06/03 00:03:39;;;;;;;8.02;4.25;;;;;;;17.43;62.79;98876.16;4981222;28;20030;-92
2023/06/03 00:06:05;;;;;;;7.75;3.80;;;;;;;17.45;62.65;98895.69;4996863;28;20034;-92
2023/06/03 00:08:31;;;;;;;5.15;3.72;;;;;;;17.62;62.51;98900.25;4964858;28;20476;-92
2023/06/03 00:10:57;;;;;;;11.82;4.57;;;;;;;17.62;62.32;98902.97;4997120;28;20095;-91
2023/06/03 00:13:22;;;;;;;6.93;3.50;;;;;;;17.38;62.16;98889.94;4997356;28;20026;-92
2023/06/03 00:15:48;;;;;;;5.07;3.42;;;;;;;17.20;62.42;98888.38;4997147;28;20027;-92
2023/06/03 00:18:15;;;;;;;7.38;3.78;;;;;;;17.07;62.18;98882.00;4980445;28;20065;-93
2023/06/03 00:20:40;;;;;;;6.05;3.78;;;;;;;17.23;61.98;98909.50;4996717;28;20058;-92
2023/06/03 00:23:06;;;;;;;6.15;3.85;;;;;;;17.02;63.19;98890.38;4998302;28;20034;-93
2023/06/03 00:25:32;;;;;;;5.90;3.83;;;;;;;17.17;62.99;98909.66;4997621;28;20031;-93
2023/06/03 00:27:57;;;;;;;5.72;3.28;;;;;;;17.16;62.37;98907.25;4997927;28;20037;-93
2023/06/03 00:30:23;;;;;;;6.20;3.05;;;;;;;17.07;62.07;98904.56;4997926;28;20037;-93
2023/06/03 00:32:48;;;;;;;5.57;3.42;;;;;;;17.03;62.34;98919.94;4997717;28;20019;-92
2023/06/03 00:35:14;;;;;;;5.70;3.63;;;;;;;17.03;61.78;98909.06;4998140;28;20409;-93
2023/06/03 00:37:39;;;;;;;6.03;3.20;;;;;;;17.09;62.43;98920.56;4996393;28;20117;-92
2023/06/03 00:40:06;;;;;;;5.43;3.70;;;;;;;17.01;62.60;98914.03;4996880;28;20034;-92
2023/06/03 00:42:31;;;;;;;14.98;4.75;;;;;;;16.94;63.13;98917.22;4996495;28;20026;-93
2023/06/03 00:44:57;;;;;;;10.32;3.67;;;;;;;16.73;64.01;98903.47;4979665;28;20117;-92
2023/06/03 00:47:22;;;;;;;6.22;3.85;;;;;;;16.71;63.56;98908.44;4980059;28;20027;-92
2023/06/03 00:49:49;;;;;;;5.90;3.92;;;;;;;16.73;63.62;98922.50;4996727;28;20026;-93
2023/06/03 00:52:15;;;;;;;4.97;3.58;;;;;;;16.81;63.59;98931.81;4996695;28;20035;-92
2023/06/03 00:54:40;;;;;;;9.52;3.50;;;;;;;16.87;63.05;98938.69;4980036;28;20030;-93
2023/06/03 00:57:06;;;;;;;4.82;3.80;;;;;;;16.91;62.60;98922.50;4995842;28;20045;-92
2023/06/03 00:59:32;;;;;;;7.00;3.80;;;;;;;17.09;61.73;98936.91;4979702;28;20108;-92
2023/06/03 01:01:58;;;;;;;7.22;4.75;;;;;;;17.15;61.17;98932.88;4995981;28;20061;-93
2023/06/03 01:04:25;;;;;;;11.85;4.80;;;;;;;17.26;60.95;98936.06;4979090;28;20034;-92
2023/06/03 01:07:02;;;;;;;5.72;4.35;;;;;;;17.52;60.79;98955.06;4963246;28;20030;-94
2023/06/03 01:09:49;;;;;;;8.20;4.43;;;;;;;17.17;61.69;98963.28;4997256;28;20058;-94
2023/06/03 01:12:23;;;;;;;9.70;4.63;;;;;;;17.05;61.53;98957.69;4997062;28;20054;-92
2023/06/03 01:14:59;;;;;;;7.00;3.80;;;;;;;16.76;63.22;98959.91;4998598;28;20026;-93
2023/06/03 01:17:27;;;;;;;6.65;3.90;;;;;;;16.62;62.94;98942.16;4997471;28;20093;-93
2023/06/03 01:19:53;;;;;;;5.40;3.47;;;;;;;16.63;62.96;98944.56;4979467;28;20038;-94
2023/06/03 01:22:26;;;;;;;8.27;4.25;;;;;;;16.60;63.26;98949.81;4979571;28;20397;-93
2023/06/03 01:25:04;;;;;;;8.90;3.90;;;;;;;16.58;63.15;98936.59;4995653;28;20034;-94
2023/06/03 01:27:30;;;;;;;8.57;4.38;;;;;;;16.72;62.80;98941.84;4980367;28;20014;-93
2023/06/03 01:29:55;;;;;;;6.03;3.42;;;;;;;16.81;62.17;98939.97;4963995;28;20400;-93
2023/06/03 01:32:21;;;;;;;7.50;3.83;;;;;;;16.71;62.60;98940.25;4979536;28;20006;-93
2023/06/03 01:34:46;;;;;;;6.63;4.07;;;;;;;16.77;62.80;98949.84;4979477;28;20053;-93
2023/06/03 01:37:12;;;;;;;7.82;4.43;;;;;;;16.77;63.22;98945.22;4980278;28;20030;-94
2023/06/03 01:39:39;;;;;;;6.65;4.20;;;;;;;16.73;62.61;98949.69;4996025;28;20026;-94
2023/06/03 01:42:07;;;;;;;9.40;4.22;;;;;;;16.88;62.84;98964.75;4995569;28;20029;-94
2023/06/03 01:44:32;;;;;;;6.43;4.40;;;;;;;16.88;62.92;98961.22;4979615;28;20496;-94
2023/06/03 01:46:57;;;;;;;7.22;4.22;;;;;;;17.06;61.85;98960.09;4979553;28;20029;-93
2023/06/03 01:49:24;;;;;;;6.55;4.03;;;;;;;17.00;62.04;98955.94;4979562;28;20026;-94
2023/06/03 01:51:50;;;;;;;8.43;3.90;;;;;;;16.95;63.00;98964.25;4979078;28;20022;-93
2023/06/03 01:54:15;;;;;;;9.50;3.80;;;;;;;17.08;59.14;98965.19;4979094;28;20022;-92
2023/06/03 01:56:42;;;;;;;5.95;3.33;;;;;;;17.19;57.40;98966.50;4979138;28;20088;-93
2023/06/03 01:59:07;;;;;;;5.03;3.22;;;;;;;17.25;56.75;98954.31;4979479;28;20477;-93
2023/06/03 02:01:33;;;;;;;6.32;2.95;;;;;;;17.35;55.29;98964.88;4979030;28;20084;-93
2023/06/03 02:03:58;;;;;;;7.25;2.78;;;;;;;17.31;54.86;98965.84;4980297;28;20034;-93
2023/06/03 02:06:24;;;;;;;6.88;2.88;;;;;;;17.20;53.92;98934.63;4978891;28;20053;-92
2023/06/03 02:08:49;;;;;;;9.98;3.10;;;;;;;17.31;53.47;98946.78;4995316;28;20088;-93
2023/06/03 02:11:15;;;;;;;5.72;3.10;;;;;;;17.24;53.72;98943.75;4978711;28;20125;-93
2023/06/03 02:13:44;;;;;;;13.32;6.65;;;;;;;17.22;55.10;98952.22;4987559;28;20417;-93
2023/06/03 02:16:10;;;;;;;9.70;3.20;;;;;;;17.12;56.88;98958.00;4978187;28;20042;-94
2023/06/03 02:18:37;;;;;;;7.80;3.22;;;;;;;16.99;59.26;98951.63;4978935;28;20084;-93
2023/06/03 02:21:02;;;;;;;5.20;3.22;;;;;;;16.95;60.00;98956.91;4978189;28;20147;-93
2023/06/03 02:23:28;;;;;;;8.07;3.40;;;;;;;16.82;60.65;98966.03;4979045;28;20050;-94
2023/06/03 02:25:54;;;;;;;5.80;3.65;;;;;;;16.78;62.24;98975.91;4980236;28;20027;-94
2023/06/03 02:28:22;;;;;;;6.40;3.38;;;;;;;16.52;62.58;98962.31;4979543;28;20022;-94
2023/06/03 02:30:48;;;;;;;5.90;3.75;;;;;;;16.36;63.28;98956.53;4979083;28;20515;-94
2023/06/03 02:33:14;;;;;;;5.53;3.95;;;;;;;16.48;63.43;98988.53;4979506;28;20051;-93
2023/06/03 02:35:39;;;;;;;5.97;3.85;;;;;;;16.35;63.42;98974.75;4996334;28;20042;-94
2023/06/03 02:38:05;;;;;;;6.45;3.58;;;;;;;16.22;63.81;98964.78;4978855;28;20084;-93
2023/06/03 02:40:30;;;;;;;4.80;3.63;;;;;;;16.13;63.98;98981.06;4995702;28;20033;-94
2023/06/03 02:42:56;;;;;;;4.78;3.67;;;;;;;16.04;63.86;98980.25;4979463;28;20030;-94
2023/06/03 02:45:21;;;;;;;8.15;3.72;;;;;;;16.02;63.62;98974.34;4979116;28;20026;-95
2023/06/03 02:47:47;;;;;;;5.25;3.78;;;;;;;15.98;63.95;98981.50;4995782;28;20037;-92
2023/06/03 02:50:12;;;;;;;12.40;3.85;;;;;;;16.12;64.06;98994.97;4994944;28;20080;-93
2023/06/03 02:52:38;;;;;;;5.75;3.75;;;;;;;15.89;65.03;98980.66;4995610;28;20022;-95
2023/06/03 02:55:04;;;;;;;5.55;3.60;;;;;;;15.96;64.65;99000.81;4996995;28;20412;-93
2023/06/03 02:57:29;;;;;;;9.93;3.97;;;;;;;15.91;65.05;98997.44;4979522;28;20117;-94
2023/06/03 02:59:56;;;;;;;8.13;3.50;;;;;;;15.98;64.09;99002.41;4995899;28;20053;-92
2023/06/03 03:02:21;;;;;;;6.65;3.60;;;;;;;15.73;65.64;98989.22;4978391;28;20050;-93
2023/06/03 03:04:47;;;;;;;7.55;3.47;;;;;;;15.75;65.39;98987.00;4979516;28;20030;-94
2023/06/03 03:07:12;;;;;;;4.95;3.40;;;;;;;15.57;65.19;98982.56;4966216;28;20034;-94
2023/06/03 03:09:38;;;;;;;7.32;3.90;;;;;;;15.64;65.38;99012.75;4981559;28;20018;-93
2023/06/03 03:12:04;;;;;;;5.40;3.78;;;;;;;15.48;65.50;99000.69;4966608;28;20014;-95
2023/06/03 03:14:30;;;;;;;5.28;3.22;;;;;;;15.48;65.45;98995.25;4982548;28;20057;-93
2023/06/03 03:16:56;;;;;;;7.55;3.65;;;;;;;15.54;65.11;99013.03;4982354;28;20030;-91
2023/06/03 03:19:22;;;;;;;7.38;3.65;;;;;;;15.52;64.24;99013.34;4995442;28;20058;-93
2023/06/03 03:21:47;;;;;;;5.18;3.40;;;;;;;15.57;64.49;99020.56;4947184;28;20572;-93
2023/06/03 03:24:13;;;;;;;4.95;3.42;;;;;;;15.66;63.87;99015.97;4963007;28;20086;-96
2023/06/03 03:26:38;;;;;;;6.22;3.97;;;;;;;15.64;63.51;99004.63;4963073;28;20022;-92
2023/06/03 03:29:05;;;;;;;6.35;3.70;;;;;;;15.68;62.96;99016.47;4979317;28;20408;-91
2023/06/03 03:31:30;;;;;;;6.15;3.67;;;;;;;15.83;62.74;99018.00;4979358;28;20023;-93
2023/06/03 03:33:55;;;;;;;6.85;4.13;;;;;;;15.73;62.87;98991.16;4946673;28;20023;-94
2023/06/03 03:36:24;;;;;;;9.45;4.55;;;;;;;15.91;63.84;99005.59;4963661;28;20030;-93
2023/06/03 03:39:04;;;;;;;5.47;3.78;;;;;;;16.12;63.57;99019.41;4962244;28;20023;-93
2023/06/03 03:41:30;;;;;;;5.05;3.60;;;;;;;16.26;63.54;99019.31;4978458;28;20093;-93
2023/06/03 03:43:56;;;;;;;8.07;4.47;;;;;;;16.30;63.74;99023.78;4962717;28;20109;-93
2023/06/03 03:46:21;;;;;;;10.55;5.57;;;;;;;16.24;64.36;98997.88;4962000;28;20027;-93
2023/06/03 03:48:47;;;;;;;9.07;5.22;;;;;;;16.36;64.59;99016.31;4962095;28;20023;-94
2023/06/03 03:51:13;;;;;;;8.15;4.78;;;;;;;16.40;64.91;99008.31;4978900;28;20397;-93
2023/06/03 03:53:43;;;;;;;10.70;6.32;;;;;;;16.51;64.48;99006.91;4978427;28;20054;-93
2023/06/03 03:56:12;;;;;;;15.07;5.90;;;;;;;16.76;63.54;99027.88;4961864;28;20106;-93
2023/06/03 03:58:42;;;;;;;21.27;7.13;;;;;;;16.95;61.67;99043.13;4961828;28;20027;-93
2023/06/03 04:01:16;;;;;;;9.68;6.13;;;;;;;17.01;60.78;99033.69;4977744;28;20504;-92
2023/06/03 04:03:46;;;;;;;11.18;6.45;;;;;;;17.28;58.98;99023.63;4962651;28;20029;-93
2023/06/03 04:06:12;;;;;;;8.85;6.15;;;;;;;17.57;57.99;99044.72;4978474;28;20058;-93
2023/06/03 04:08:45;;;;;;;10.13;6.13;;;;;;;17.65;57.11;99022.09;4978512;28;20047;-93
2023/06/03 04:11:23;;;;;;;10.85;5.45;;;;;;;17.92;56.01;99045.44;4978218;28;20117;-93
2023/06/03 04:13:55;;;;;;;6.40;4.43;;;;;;;18.00;56.24;99040.31;4978840;28;20398;-93
2023/06/03 04:16:47;;;;;;;8.30;4.28;;;;;;;18.03;57.47;99042.38;4977150;28;20109;-93
2023/06/03 04:19:20;;;;;;;5.78;3.90;;;;;;;18.01;57.47;99056.31;4977181;28;20042;-94
2023/06/03 04:21:46;;;;;;;6.82;3.83;;;;;;;17.92;57.96;99052.84;4977624;28;20026;-94
2023/06/03 04:24:12;;;;;;;6.70;3.53;;;;;;;17.82;58.91;99055.88;4979185;28;20034;-95
2023/06/03 04:26:38;;;;;;;5.72;3.80;;;;;;;17.69;58.26;99041.34;4981145;28;20023;-95
2023/06/03 04:29:04;;;;;;;6.97;4.10;;;;;;;17.74;58.33;99033.78;4945524;28;20023;-95
2023/06/03 04:31:29;;;;;;;11.25;4.13;;;;;;;18.03;58.42;99056.78;4977663;28;20154;-93
2023/06/03 04:33:55;;;;;;;6.35;4.10;;;;;;;18.14;58.13;99044.44;4944939;28;20030;-93
2023/06/03 04:36:20;;;;;;;6.57;3.78;;;;;;;18.22;57.67;99042.81;4961648;28;20027;-93
2023/06/03 04:38:47;;;;;;;9.35;4.22;;;;;;;18.18;58.50;99042.66;4944529;28;20031;-94
2023/06/03 04:41:14;;;;;;;6.55;4.60;;;;;;;18.22;58.25;99041.97;4945489;28;20489;-94
2023/06/03 04:43:40;;;;;;;7.93;4.68;;;;;;;18.30;59.95;99057.50;4961254;28;20027;-94
2023/06/03 04:46:07;;;;;;;11.88;4.90;;;;;;;18.35;58.93;99049.16;4961483;28;20439;-95
2023/06/03 04:48:33;;;;;;;7.90;4.25;;;;;;;18.43;58.85;99037.41;4976481;28;20034;-93
2023/06/03 04:51:01;;;;;;;5.80;4.70;;;;;;;18.62;58.54;99052.53;4945325;28;20023;-94
2023/06/03 04:53:27;;;;;;;8.65;4.50;;;;;;;18.82;57.84;99056.44;4945267;28;20050;-95
2023/06/03 04:55:52;;;;;;;7.40;5.18;;;;;;;19.00;57.56;99048.94;4960673;28;20037;-94
2023/06/03 04:58:18;;;;;;;8.15;4.95;;;;;;;19.09;57.35;99053.22;4959695;28;20023;-94
2023/06/03 05:00:45;;;;;;;10.43;5.15;;;;;;;19.22;56.67;99075.91;4961151;28;20038;-95
2023/06/03 05:03:10;;;;;;;8.55;5.03;;;;;;;19.17;56.50;99054.25;4976928;28;20038;-94
2023/06/03 05:05:41;;;;;;;11.75;5.50;;;;;;;19.30;56.61;99064.13;4960471;28;20027;-94
2023/06/03 05:08:07;;;;;;;11.87;5.00;;;;;;;19.47;56.84;99057.69;4976495;28;20025;-93
2023/06/03 05:10:35;;;;;;;12.35;6.68;;;;;;;19.69;55.90;99072.09;4977477;28;20258;-94
2023/06/03 05:13:01;;;;;;;11.23;6.65;;;;;;;19.86;55.32;99071.16;4976998;28;20029;-94
2023/06/03 05:15:27;;;;;;;9.20;5.82;;;;;;;20.01;53.33;99073.25;4976871;28;20093;-94
2023/06/03 05:17:52;;;;;;;7.47;4.75;;;;;;;20.28;53.56;99085.47;4976073;28;20031;-95
2023/06/03 05:20:18;;;;;;;8.23;5.50;;;;;;;20.42;54.02;99087.91;4987186;28;20054;-94
2023/06/03 05:22:43;;;;;;;11.68;5.45;;;;;;;20.39;54.69;99100.28;4995358;28;20062;-94
2023/06/03 05:25:09;;;;;;;13.80;6.28;;;;;;;20.36;54.41;99075.59;5011133;28;20026;-94
2023/06/03 05:27:35;;;;;;;15.40;6.32;;;;;;;20.48;54.70;99088.44;4994525;28;20507;-94
2023/06/03 05:30:01;;;;;;;13.55;6.20;;;;;;;20.74;53.64;99101.81;4994936;28;20056;-94
2023/06/03 05:32:26;;;;;;;8.88;5.88;;;;;;;20.84;54.02;99087.69;4995329;28;20014;-94
2023/06/03 05:34:52;;;;;;;15.82;6.75;;;;;;;21.08;53.18;99089.56;4995721;28;20017;-94
2023/06/03 05:37:17;;;;;;;8.23;6.22;;;;;;;21.12;52.74;99092.41;4994797;28;20026;-94
2023/06/03 05:39:43;;;;;;;7.85;6.00;;;;;;;21.20;52.54;99092.28;4994813;28;20088;-93
2023/06/03 05:42:08;;;;;;;18.42;10.35;;;;;;;21.25;54.31;99115.91;4963033;28;20030;-93
2023/06/03 05:44:34;;;;;;;8.52;4.72;;;;;;;21.09;53.87;99084.91;4995151;28;20086;-95
2023/06/03 05:46:59;;;;;;;8.10;5.22;;;;;;;21.27;53.70;99101.84;4978500;28;20559;-94
2023/06/03 05:49:25;;;;;;;8.80;5.65;;;;;;;21.53;52.99;99120.63;4979099;28;20026;-95
2023/06/03 05:51:53;;;;;;;6.82;5.07;;;;;;;21.69;51.91;99101.50;4994876;28;20026;-93
2023/06/03 05:54:18;;;;;;;7.78;5.00;;;;;;;21.72;52.66;99095.31;4994809;28;20448;-93
2023/06/03 05:56:44;;;;;;;10.95;5.47;;;;;;;21.64;52.80;99096.25;4994293;28;20030;-93
2023/06/03 05:59:09;;;;;;;13.93;6.05;;;;;;;21.72;53.09;99118.03;4979440;28;20037;-94
2023/06/03 06:01:35;;;;;;;8.57;5.80;;;;;;;21.79;52.47;99103.75;4995047;28;20026;-95
2023/06/03 06:04:00;;;;;;;9.65;5.32;;;;;;;22.03;51.96;99111.03;4979148;28;20034;-94
2023/06/03 06:06:26;;;;;;;9.55;4.60;;;;;;;21.73;53.16;99103.19;4993535;28;20049;-92
2023/06/03 06:08:51;;;;;;;5.63;4.40;;;;;;;21.90;52.42;99125.97;4994122;28;20018;-95
2023/06/03 06:11:17;;;;;;;9.18;5.00;;;;;;;21.79;52.71;99122.94;4979150;28;20033;-94
2023/06/03 06:13:43;;;;;;;7.68;4.95;;;;;;;21.83;52.40;99123.00;4994709;28;20033;-95
2023/06/03 06:16:08;;;;;;;6.88;4.93;;;;;;;21.78;52.79;99132.28;4987787;28;20033;-93
2023/06/03 06:18:34;;;;;;;8.30;4.80;;;;;;;21.71;52.69;99132.91;4965486;28;20029;-93
2023/06/03 06:20:59;;;;;;;10.20;5.32;;;;;;;21.56;53.09;99139.09;4965786;28;20076;-93
2023/06/03 06:23:25;;;;;;;8.43;4.78;;;;;;;21.62;52.72;99124.00;4997544;28;20101;-94
2023/06/03 06:25:52;;;;;;;10.75;5.18;;;;;;;21.59;53.61;99130.19;4981409;28;20026;-93
2023/06/03 06:28:18;;;;;;;8.80;5.32;;;;;;;21.53;53.86;99140.59;4965812;28;20065;-93
2023/06/03 06:30:44;;;;;;;11.73;5.97;;;;;;;21.58;53.71;99148.59;4998316;28;20029;-93
2023/06/03 06:33:12;;;;;;;11.93;5.65;;;;;;;21.58;57.02;99145.03;4983345;28;20077;-93
2023/06/03 06:35:37;;;;;;;10.35;5.63;;;;;;;21.53;59.89;99129.63;4982724;28;20164;-93
2023/06/03 06:38:03;;;;;;;8.32;5.30;;;;;;;21.84;58.42;99152.81;4982363;28;20030;-93
2023/06/03 06:40:49;;;;;;;11.27;6.22;;;;;;;21.88;59.62;99161.94;4967131;28;20026;-92
2023/06/03 06:43:21;;;;;;;8.30;5.63;;;;;;;21.94;60.27;99146.84;5015687;28;20109;-93
2023/06/03 06:45:46;;;;;;;6.57;4.97;;;;;;;22.14;59.04;99149.69;4985707;28;20022;-93
2023/06/03 06:48:17;;;;;;;7.32;4.70;;;;;;;22.28;57.99;99163.03;5001427;28;20464;-92
2023/06/03 06:50:53;;;;;;;10.75;5.25;;;;;;;22.25;57.83;99161.00;5001488;28;20081;-93
2023/06/03 06:53:19;;;;;;;6.60;4.75;;;;;;;22.27;56.61;99147.72;4985402;28;20120;-91
2023/06/03 06:55:52;;;;;;;9.75;6.10;;;;;;;22.29;58.63;99162.69;4985548;28;20022;-94
2023/06/03 06:58:18;;;;;;;7.75;3.47;;;;;;;22.04;56.37;99172.13;4985141;28;20022;-92
2023/06/03 07:00:43;;;;;;;5.68;3.45;;;;;;;21.42;57.82;99166.91;5000575;28;20491;-92
2023/06/03 07:03:10;;;;;;;4.68;2.92;;;;;;;21.43;58.06;99162.22;4984766;28;20447;-94
2023/06/03 07:05:35;;;;;;;4.15;3.30;;;;;;;21.51;60.09;99183.97;4968206;28;20088;-94
2023/06/03 07:08:01;;;;;;;4.70;3.65;;;;;;;21.51;61.63;99183.19;4985444;28;20459;-94
2023/06/03 07:10:27;;;;;;;5.75;3.35;;;;;;;21.25;61.52;99164.38;5000974;28;20396;-94
2023/06/03 07:12:53;;;;;;;4.10;2.85;;;;;;;21.39;59.92;99165.63;5001366;28;20021;-92
2023/06/03 07:15:19;;;;;;;3.97;3.03;;;;;;;21.41;59.80;99184.44;5000729;28;20064;-92
2023/06/03 07:17:54;;;;;;;7.32;3.80;;;;;;;21.29;61.66;99171.56;5001767;28;20109;-96
2023/06/03 07:20:38;;;;;;;5.05;3.83;;;;;;;21.43;61.82;99198.59;4970025;28;20054;-94
2023/06/03 07:23:08;;;;;;;4.70;3.83;;;;;;;21.30;62.73;99164.16;5000672;28;20403;-94
2023/06/03 07:25:33;;;;;;;8.82;3.65;;;;;;;21.47;61.88;99199.50;5017739;28;20029;-94
2023/06/03 07:27:59;;;;;;;5.18;3.72;;;;;;;21.30;63.74;99178.63;5001231;28;20060;-94
2023/06/03 07:30:25;;;;;;;6.65;3.90;;;;;;;21.19;63.89;99172.84;5001327;28;20044;-92
2023/06/03 07:32:57;;;;;;;7.75;4.35;;;;;;;21.09;66.55;99175.25;5000025;28;20034;-96
2023/06/03 07:35:22;;;;;;;6.55;4.20;;;;;;;21.13;66.35;99179.69;5000961;28;20041;-93
2023/06/03 07:37:48;;;;;;;6.60;4.40;;;;;;;21.09;66.94;99178.00;5000568;28;20022;-93
2023/06/03 07:40:15;;;;;;;6.72;4.10;;;;;;;21.29;65.53;99196.22;5016676;28;20034;-93
2023/06/03 07:42:43;;;;;;;5.32;3.63;;;;;;;21.14;65.33;99196.91;4984449;28;20493;-92
2023/06/03 07:45:08;;;;;;;5.43;4.15;;;;;;;21.14;65.79;99199.66;5019543;28;20385;-96
2023/06/03 07:47:34;;;;;;;10.48;5.55;;;;;;;21.03;66.56;99180.16;5000486;28;20030;-93
2023/06/03 07:50:02;;;;;;;7.03;4.43;;;;;;;21.14;67.11;99194.16;5017094;28;20026;-93
2023/06/03 07:52:27;;;;;;;7.82;4.25;;;;;;;21.22;68.21;99192.47;4998848;28;20022;-93
2023/06/03 07:54:53;;;;;;;5.93;4.10;;;;;;;21.22;65.93;99187.78;5000752;28;20465;-93
2023/06/03 07:57:18;;;;;;;6.68;3.97;;;;;;;21.35;65.46;99180.31;4999775;28;20037;-92
2023/06/03 07:59:51;;;;;;;6.90;4.38;;;;;;;21.59;64.41;99185.00;4999846;28;20061;-91
2023/06/03 08:02:17;;;;;;;6.30;4.55;;;;;;;21.69;64.58;99181.78;4982397;28;20037;-92
2023/06/03 08:04:43;;;;;;;6.88;4.65;;;;;;;21.81;63.42;99186.44;5000287;28;20030;-91
2023/06/03 08:07:09;;;;;;;7.53;4.40;;;;;;;22.01;64.20;99192.84;4999847;28;20108;-92
2023/06/03 08:09:36;;;;;;;6.15;4.55;;;;;;;21.74;65.83;99176.03;5002309;28;20038;-94
2023/06/03 08:12:05;;;;;;;6.07;4.47;;;;;;;21.94;66.67;99178.94;5000212;28;20045;-92
2023/06/03 08:14:32;;;;;;;9.02;5.90;;;;;;;21.96;67.76;99184.88;4985226;28;20480;-95
2023/06/03 08:17:04;;;;;;;16.88;11.35;;;;;;;21.73;66.81;99181.88;5003742;28;20053;-94
2023/06/03 08:19:29;;;;;;;17.27;10.38;;;;;;;21.76;67.50;99189.41;4983741;28;20054;-94
2023/06/03 08:21:55;;;;;;;13.93;10.63;;;;;;;21.93;68.19;99199.25;4967277;28;20062;-94
2023/06/03 08:24:20;;;;;;;14.98;9.55;;;;;;;22.12;66.71;99190.38;4968398;28;20097;-95
2023/06/03 08:26:46;;;;;;;12.43;8.45;;;;;;;22.25;65.24;99185.69;4968472;28;20057;-95
2023/06/03 08:29:14;;;;;;;15.27;9.38;;;;;;;22.19;67.55;99185.91;5009722;28;20424;-95
2023/06/03 08:31:43;;;;;;;12.15;7.65;;;;;;;21.98;69.49;99177.09;4989196;28;20049;-96
2023/06/03 08:34:08;;;;;;;10.73;7.40;;;;;;;22.04;69.73;99186.66;5001284;28;20033;-95
2023/06/03 08:36:34;;;;;;;6.55;4.32;;;;;;;22.20;63.61;99197.66;5004318;28;20046;-96
2023/06/03 08:39:00;;;;;;;8.77;6.07;;;;;;;22.23;66.23;99205.22;4956509;28;20026;-94
2023/06/03 08:41:26;;;;;;;8.00;6.50;;;;;;;22.33;66.76;99212.94;4969103;28;20046;-94
2023/06/03 08:43:55;;;;;;;9.20;5.88;;;;;;;22.46;64.12;99190.94;4968281;28;20022;-95
2023/06/03 08:46:30;;;;;;;7.90;5.95;;;;;;;22.28;65.04;99198.69;4968628;28;20033;-93
2023/06/03 08:49:03;;;;;;;13.77;10.10;;;;;;;22.51;66.29;99212.59;4983269;28;20099;-95
2023/06/03 08:51:33;;;;;;;8.43;6.60;;;;;;;22.46;66.59;99202.69;4984382;28;20019;-94
2023/06/03 08:53:58;;;;;;;7.15;4.88;;;;;;;22.61;63.96;99203.84;4984499;28;20023;-95
2023/06/03 08:56:25;;;;;;;6.60;5.35;;;;;;;22.69;63.57;99199.34;4965695;28;20022;-95
2023/06/03 08:59:01;;;;;;;7.07;4.30;;;;;;;22.82;63.29;99211.81;4982531;28;20097;-94
2023/06/03 09:01:35;;;;;;;6.38;4.00;;;;;;;22.89;61.99;99212.03;4966486;28;20498;-95
2023/06/03 09:04:02;;;;;;;9.63;4.53;;;;;;;22.92;61.72;99213.25;4966131;28;20551;-95
2023/06/03 09:06:27;;;;;;;6.18;4.00;;;;;;;22.93;62.61;99206.59;4965872;28;20089;-92
2023/06/03 09:08:53;;;;;;;5.43;3.67;;;;;;;22.94;60.63;99205.47;4998723;28;20018;-93
2023/06/03 09:11:19;;;;;;;4.80;3.50;;;;;;;23.19;60.32;99206.06;4965639;28;20030;-94
2023/06/03 09:13:44;;;;;;;6.45;5.00;;;;;;;23.58;57.76;99208.91;4996156;28;20033;-94
2023/06/03 09:16:10;;;;;;;6.88;4.07;;;;;;;23.82;58.31;99215.31;4981138;28;20524;-94
2023/06/03 09:18:39;;;;;;;5.47;3.90;;;;;;;23.87;59.17;99215.84;4965013;28;20046;-94
2023/06/03 09:21:08;;;;;;;5.40;4.00;;;;;;;23.87;58.68;99217.78;4978676;28;20073;-91
2023/06/03 09:23:33;;;;;;;10.57;4.82;;;;;;;24.17;58.42;99201.47;4999475;28;20033;-91
2023/06/03 09:25:59;;;;;;;6.28;4.05;;;;;;;24.23;56.47;99204.72;4981605;28;20037;-93
2023/06/03 09:28:25;;;;;;;9.18;5.30;;;;;;;24.19;60.39;99212.91;4972756;28;20172;-93
2023/06/03 09:30:50;;;;;;;8.20;4.57;;;;;;;24.15;58.04;99217.56;4974733;28;20424;-92
2023/06/03 09:33:16;;;;;;;6.13;3.95;;;;;;;24.17;58.06;99212.47;4975593;28;20025;-92
2023/06/03 09:35:41;;;;;;;7.80;4.38;;;;;;;24.08;58.97;99228.44;4981766;28;20026;-91
2023/06/03 09:38:07;;;;;;;9.32;5.05;;;;;;;23.86;60.37;99202.44;4982289;28;20468;-93
2023/06/03 09:40:33;;;;;;;11.52;5.25;;;;;;;24.09;58.58;99221.75;4997982;28;20033;-92
2023/06/03 09:42:59;;;;;;;7.82;5.63;;;;;;;23.97;58.05;99212.50;4980618;28;20041;-93
2023/06/03 09:45:28;;;;;;;7.68;4.10;;;;;;;24.20;57.89;99225.53;4978961;28;20045;-92
2023/06/03 09:47:58;;;;;;;5.65;3.80;;;;;;;24.19;56.53;99207.41;4991715;28;20026;-93
2023/06/03 09:50:27;;;;;;;7.78;4.45;;;;;;;24.35;56.59;99221.88;4976264;28;20026;-93
2023/06/03 09:52:53;;;;;;;7.78;4.07;;;;;;;24.30;56.02;99211.19;4981692;28;20091;-93
2023/06/03 09:55:19;;;;;;;5.13;3.65;;;;;;;24.30;55.05;99202.09;4997601;28;20022;-96
2023/06/03 09:58:08;;;;;;;6.90;3.95;;;;;;;24.30;55.12;99232.38;4966969;28;20030;-93
2023/06/03 10:00:47;;;;;;;8.30;4.35;;;;;;;24.74;53.41;99227.31;4980704;28;20145;-94
2023/06/03 10:03:13;;;;;;;8.50;3.60;;;;;;;25.10;54.01;99213.34;4980565;28;20093;-93
2023/06/03 10:05:39;;;;;;;5.57;3.60;;;;;;;25.17;50.47;99211.50;4997686;28;20038;-92
2023/06/03 10:08:05;;;;;;;6.93;3.25;;;;;;;25.35;51.27;99222.00;4980406;28;20137;-93
2023/06/03 10:10:31;;;;;;;6.45;3.72;;;;;;;25.30;52.07;99241.63;4996228;28;20034;-90
2023/06/03 10:12:56;;;;;;;3.95;3.53;;;;;;;25.07;53.18;99231.41;5013923;28;20373;-94
2023/06/03 10:15:38;;;;;;;8.93;3.88;;;;;;;24.94;52.79;99241.00;4980766;28;20064;-93
2023/06/03 10:18:04;;;;;;;6.65;3.97;;;;;;;24.94;52.67;99230.78;4998272;28;20112;-94
2023/06/03 10:20:37;;;;;;;6.85;3.88;;;;;;;24.75;52.14;99231.66;4996791;28;20080;-92
2023/06/03 10:23:07;;;;;;;5.95;4.10;;;;;;;24.71;53.16;99222.53;4998013;28;20026;-92
2023/06/03 10:25:35;;;;;;;5.80;4.13;;;;;;;24.64;54.33;99222.41;4982134;28;20469;-93
2023/06/03 10:28:01;;;;;;;7.05;4.30;;;;;;;24.67;53.73;99237.41;4997712;28;20088;-91
2023/06/03 10:30:27;;;;;;;8.63;4.75;;;;;;;24.68;53.62;99228.78;4981349;28;20472;-91
2023/06/03 10:32:53;;;;;;;10.82;4.60;;;;;;;24.92;52.55;99246.91;4980889;28;20006;-94
2023/06/03 10:35:19;;;;;;;4.78;3.80;;;;;;;24.63;50.93;99233.78;4980869;28;20029;-94
2023/06/03 10:37:46;;;;;;;6.88;3.92;;;;;;;24.61;50.97;99242.41;4964793;28;20511;-92
2023/06/03 10:40:11;;;;;;;4.78;3.92;;;;;;;24.39;50.89;99219.97;4981353;28;20443;-93
2023/06/03 10:42:37;;;;;;;7.15;4.70;;;;;;;24.29;50.27;99212.31;4964387;28;20045;-93
2023/06/03 10:45:06;;;;;;;6.22;4.03;;;;;;;24.31;51.61;99232.00;4980185;28;20030;-93
2023/06/03 10:47:32;;;;;;;4.88;3.70;;;;;;;24.41;51.79;99231.41;4979779;28;20030;-92
2023/06/03 10:50:52;;;;;;;7.45;3.97;;;;;;;24.40;52.39;99210.56;4980147;28;20030;-92
2023/06/03 10:53:32;;;;;;;7.88;3.95;;;;;;;24.48;52.95;99241.75;4933918;29;20115;-93
2023/06/03 10:56:23;;;;;;;11.90;4.10;;;;;;;24.65;53.14;99242.47;5012555;28;20030;-92
2023/06/03 10:59:02;;;;;;;6.00;4.10;;;;;;;24.50;51.80;99233.97;4980216;28;20041;-93
2023/06/03 11:01:58;;;;;;;7.53;4.40;;;;;;;24.57;50.95;99258.88;4980946;28;20029;-92
2023/06/03 11:04:24;;;;;;;4.93;3.85;;;;;;;24.54;49.39;99232.06;4995826;28;20049;-92
2023/06/03 11:06:49;;;;;;;5.43;3.60;;;;;;;24.59;51.02;99231.78;4964184;28;20022;-93
2023/06/03 11:09:17;;;;;;;6.85;4.07;;;;;;;24.91;51.57;99234.28;4963718;28;20030;-93
2023/06/03 11:11:48;;;;;;;4.30;3.53;;;;;;;25.04;50.99;99250.63;4981186;28;20528;-92
2023/06/03 11:14:26;;;;;;;5.85;4.05;;;;;;;25.04;51.53;99258.88;4996150;28;20029;-93
2023/06/03 11:16:57;;;;;;;4.88;3.80;;;;;;;25.25;49.77;99252.94;4995973;28;20041;-93
2023/06/03 11:19:26;;;;;;;;;;;;;;;25.42;49.69;99246.91;4996465;28;20056;-93
2023/06/03 11:21:52;;;;;;;7.75;3.67;;;;;;;25.57;49.34;99237.69;4996513;28;20007;-94
2023/06/03 11:24:39;;;;;;;9.23;3.95;;;;;;;25.73;48.55;99250.47;4979908;28;20401;-92
2023/06/03 11:27:14;;;;;;;7.97;3.63;;;;;;;25.78;48.44;99269.47;4999424;28;20034;-93
2023/06/03 11:29:46;;;;;;;7.15;3.95;;;;;;;25.63;49.70;99248.38;5000384;28;20092;-92
2023/06/03 11:32:21;;;;;;;6.80;3.95;;;;;;;25.35;49.95;99244.84;5018130;28;20022;-93
2023/06/03 11:34:50;;;;;;;6.32;3.67;;;;;;;25.22;49.90;99231.66;5000356;28;20057;-93